Forside
METAR-TAF:

METAR-TAF

Lufthavne :

Xi'an, Kina

Breddekreds: 34-26N, længdekreds: 108-45E, højde: 479 m

Aktuelle vejr

Denne rapport blev lavet for 22 minutter siden, kl. 11:00 UTC
Vind 12 kt fra østnordøst
Temperatur 19°C
Fugtighed 52%
Tryk 1014 hPa
Sigt: 4000 m
tåge/dis

METAR: ZLXY 171100Z 06006MPS 4000 HZ NSC 19/09 Q1014 NOSIG

Tid: 19:22 (11:22 UTC)

Vejrudsigter

Denne rapport blev lavet for 8 timer og 13 minutter siden, kl. 03:09 UTC
Foreløbig gælder fra 17 på 06 UTC til 18 på 06 UTC
Vind 8 kt fra østnordøst med vindstød på up til 17 kt
Sigt: 3000 m
tåge/dis
ændring
fra 17 på 15 UTC til 17 på 16 UTC
Sigt: 1600 m
dis
Midlertidig
fra 17 på 21 UTC til 18 på 01 UTC
Sigt: 1400 m
dis

TAF: ZLXY 170309Z 1706/1806 06004G09MPS 3000 HZ NSC TX21/1707Z TN11/1721Z BECMG 1715/1716 1600 BR TEMPO 1721/1801 1400 BR

Vejrobservationer og prognoser fra mere end 4000 lufthavne (METAR og TAF).

De gule og røde prikker repræsenterer de meteorologiske stationer.

Flyt musen over at se navnet på stationen.

Så klik over at se vejr observationer og prognoser.

At skifte det kort: Klik på de grønne knapper med et sort kors for at zoome ind; på den grønne knap med en bindestreg for at zoome ud; eller på de grønne pile for tilstødende kort.


METAR-TAF: